createdAt,value
2022-10-11T00:00:01.626Z,100218.84
2022-10-11T00:05:24.479Z,100207.42
2022-10-11T00:10:26.891Z,100210.13
2022-10-11T00:15:29.337Z,100209.19
2022-10-11T00:20:31.876Z,100205.36
2022-10-11T00:25:34.264Z,100203.71
2022-10-11T00:30:36.740Z,100207.98
2022-10-11T00:35:41.589Z,100207.39
2022-10-11T00:40:45.407Z,100208.56
2022-10-11T00:46:24.854Z,100204.88
2022-10-11T00:51:43.160Z,100200.70
2022-10-11T00:56:50.846Z,100199.94
2022-10-11T01:01:53.512Z,100197.21
2022-10-11T01:06:57.835Z,100190.31
2022-10-11T01:12:03.377Z,100191.10
2022-10-11T01:17:24.659Z,100190.43
2022-10-11T01:22:38.141Z,100191.55
2022-10-11T01:27:46.850Z,100193.13
2022-10-11T01:33:16.246Z,100191.97
2022-10-11T01:38:40.454Z,100189.05
2022-10-11T01:43:44.733Z,100182.81
2022-10-11T01:48:53.158Z,100177.00
2022-10-11T01:54:56.622Z,100163.73
2022-10-11T02:00:18.067Z,100168.69
2022-10-11T02:05:58.473Z,100171.98
2022-10-11T02:11:20.175Z,100165.58
2022-10-11T02:16:28.409Z,100168.70
2022-10-11T02:21:34.531Z,100174.95
2022-10-11T02:26:43.587Z,100175.55
2022-10-11T02:31:47.971Z,100172.38
2022-10-11T02:37:07.200Z,100180.91
2022-10-11T02:42:17.507Z,100189.22
2022-10-11T02:47:20.032Z,100182.89
2022-10-11T02:52:22.444Z,100188.48
2022-10-11T02:57:24.990Z,100189.58
2022-10-11T03:02:27.661Z,100192.50
2022-10-11T03:07:30.490Z,100196.30
2022-10-11T03:12:33.586Z,100207.45
2022-10-11T03:17:37.319Z,100217.23
2022-10-11T03:22:40.574Z,100213.67
2022-10-11T03:27:43.012Z,100208.48
2022-10-11T03:32:45.902Z,100212.98
2022-10-11T03:37:48.433Z,100210.92
2022-10-11T03:42:50.901Z,100220.95
2022-10-11T03:47:53.439Z,100228.39
2022-10-11T03:52:55.862Z,100228.12
2022-10-11T03:57:58.336Z,100235.22
2022-10-11T04:03:03.598Z,100230.49
2022-10-11T04:08:11.208Z,100237.60
2022-10-11T04:13:15.047Z,100242.16
2022-10-11T04:18:17.543Z,100242.52
2022-10-11T04:23:20.044Z,100246.23
2022-10-11T04:28:22.942Z,100254.10
2022-10-11T04:33:25.423Z,100258.89
2022-10-11T04:38:27.859Z,100266.82
2022-10-11T04:43:30.284Z,100270.30
2022-10-11T04:48:33.091Z,100270.89
2022-10-11T04:53:35.692Z,100277.70
2022-10-11T04:58:42.006Z,100286.20
2022-10-11T05:03:44.551Z,100294.15
2022-10-11T05:08:47.173Z,100302.42
2022-10-11T05:13:50.053Z,100308.30
2022-10-11T05:18:52.496Z,100318.73
2022-10-11T05:23:56.293Z,100323.49
2022-10-11T05:29:01.139Z,100331.23
2022-10-11T05:34:03.926Z,100336.71
2022-10-11T05:39:06.400Z,100341.81
2022-10-11T05:44:08.952Z,100347.23
2022-10-11T05:49:11.388Z,100356.54
2022-10-11T05:54:15.114Z,100363.91
2022-10-11T05:59:17.553Z,100367.14
2022-10-11T06:04:20.282Z,100380.27
2022-10-11T06:09:23.241Z,100381.83
2022-10-11T06:14:26.689Z,100387.38
2022-10-11T06:19:29.135Z,100393.19
2022-10-11T06:24:31.886Z,100403.65
2022-10-11T06:29:35.589Z,100414.75
2022-10-11T06:34:38.068Z,100428.06
2022-10-11T06:39:40.563Z,100436.70
2022-10-11T06:44:43.187Z,100450.02
2022-10-11T06:49:45.992Z,100455.98
2022-10-11T06:54:48.662Z,100458.73
2022-10-11T06:59:51.211Z,100461.55
2022-10-11T07:04:54.093Z,100469.44
2022-10-11T07:09:57.896Z,100482.65
2022-10-11T07:15:00.561Z,100487.48
2022-10-11T07:20:03.362Z,100495.56
2022-10-11T07:25:06.875Z,100505.44
2022-10-11T07:30:09.996Z,100513.17
2022-10-11T07:35:12.513Z,100523.94
2022-10-11T07:40:14.997Z,100534.05
2022-10-11T07:45:17.467Z,100539.05
2022-10-11T07:50:19.916Z,100544.09
2022-10-11T07:55:22.376Z,100553.11
2022-10-11T08:00:24.865Z,100558.58
2022-10-11T08:05:27.311Z,100567.80
2022-10-11T08:10:29.946Z,100573.11
2022-10-11T08:15:32.462Z,100581.89
2022-10-11T08:20:35.083Z,100590.98
2022-10-11T08:25:45.524Z,100601.29
2022-10-11T08:30:53.604Z,100602.09
2022-10-11T08:35:57.267Z,100601.91
2022-10-11T08:41:01.156Z,100604.17
2022-10-11T08:46:05.958Z,100609.28
2022-10-11T08:51:18.571Z,100613.54
2022-10-11T08:56:23.959Z,100626.33
2022-10-11T09:01:28.538Z,100632.13
2022-10-11T09:06:47.723Z,100641.08
2022-10-11T09:12:16.121Z,100645.89
2022-10-11T09:17:56.737Z,100654.13
2022-10-11T09:23:18.112Z,100659.23
2022-10-11T09:28:48.678Z,100662.67
2022-10-11T09:33:52.381Z,100665.25
2022-10-11T09:39:07.002Z,100671.27
2022-10-11T09:44:19.188Z,100679.09
2022-10-11T09:49:25.185Z,100680.50
2022-10-11T09:55:00.507Z,100689.74
2022-10-11T10:00:24.211Z,100694.06
2022-10-11T10:05:29.938Z,100697.69
2022-10-11T10:10:38.712Z,100703.56
2022-10-11T10:15:46.120Z,100704.64
2022-10-11T10:20:53.640Z,100710.96
2022-10-11T10:26:19.570Z,100715.41
2022-10-11T10:31:25.547Z,100720.24
2022-10-11T10:36:35.428Z,100722.20
2022-10-11T10:41:37.899Z,100728.14
2022-10-11T10:52:47.379Z,100740.06
2022-10-11T10:57:59.499Z,100739.45
2022-10-11T11:03:05.616Z,100743.65
2022-10-11T11:08:46.534Z,100737.14
2022-10-11T11:14:07.811Z,100740.12
2022-10-11T11:19:47.987Z,100747.27
2022-10-11T11:25:19.578Z,100747.75
2022-10-11T11:30:57.091Z,100748.38
2022-10-11T11:36:05.045Z,100759.29
2022-10-11T11:41:28.624Z,100756.40
2022-10-11T11:46:40.862Z,100756.59
2022-10-11T11:51:46.070Z,100754.88
2022-10-11T11:57:33.659Z,100755.93
2022-10-11T12:02:57.263Z,100758.45
2022-10-11T12:08:02.819Z,100763.33
2022-10-11T12:13:32.343Z,100766.80
2022-10-11T12:18:46.880Z,100762.27
2022-10-11T12:23:52.566Z,100767.43
2022-10-11T12:29:17.078Z,100763.14
2022-10-11T12:34:36.114Z,100760.93
2022-10-11T12:39:49.068Z,100764.81
2022-10-11T12:45:13.520Z,100763.73
2022-10-11T12:50:22.486Z,100767.08
2022-10-11T12:55:37.553Z,100771.10
2022-10-11T13:00:39.928Z,100773.75
2022-10-11T13:05:50.980Z,100775.30
2022-10-11T13:11:03.234Z,100783.52
2022-10-11T13:16:14.643Z,100789.16
2022-10-11T13:21:36.547Z,100806.96
2022-10-11T13:26:39.994Z,100810.77
2022-10-11T13:31:46.248Z,100810.18
2022-10-11T13:36:54.122Z,100803.59
2022-10-11T13:41:58.212Z,100800.55
2022-10-11T13:47:00.761Z,100796.41
2022-10-11T13:52:24.015Z,100796.89
2022-10-11T13:57:41.731Z,100806.02
2022-10-11T14:02:59.609Z,100804.90
2022-10-11T14:08:26.808Z,100808.52
2022-10-11T14:13:53.818Z,100805.91
2022-10-11T14:18:59.178Z,100810.33
2022-10-11T14:24:05.520Z,100806.02
2022-10-11T14:29:21.782Z,100814.60
2022-10-11T14:34:26.811Z,100818.89
2022-10-11T14:39:31.711Z,100827.09
2022-10-11T14:44:34.555Z,100826.27
2022-10-11T14:49:37.607Z,100827.30
2022-10-11T14:54:40.906Z,100832.16
2022-10-11T14:59:43.576Z,100834.43
2022-10-11T15:04:46.027Z,100840.98
2022-10-11T15:09:48.460Z,100848.34
2022-10-11T15:14:50.910Z,100851.73
2022-10-11T15:19:53.465Z,100857.73
2022-10-11T15:24:56.108Z,100859.66
2022-10-11T15:29:58.521Z,100863.49
2022-10-11T15:35:00.957Z,100874.58
2022-10-11T15:40:14.139Z,100872.45
2022-10-11T15:45:18.402Z,100879.42
2022-10-11T15:50:33.771Z,100885.36
2022-10-11T15:55:40.369Z,100888.96
2022-10-11T16:00:45.184Z,100896.70
2022-10-11T16:05:48.531Z,100900.39
2022-10-11T16:10:52.221Z,100903.73
2022-10-11T16:15:55.151Z,100911.90
2022-10-11T16:20:58.033Z,100914.52
2022-10-11T16:26:04.275Z,100918.55
2022-10-11T16:31:09.271Z,100918.39
2022-10-11T16:36:32.338Z,100923.33
2022-10-11T16:41:34.950Z,100917.02
2022-10-11T16:46:37.442Z,100917.71
2022-10-11T16:51:43.012Z,100919.98
2022-10-11T16:56:45.541Z,100921.23
2022-10-11T17:01:48.328Z,100920.20
2022-10-11T17:06:52.664Z,100923.14
2022-10-11T17:11:55.376Z,100926.05
2022-10-11T17:16:57.822Z,100930.80
2022-10-11T17:22:00.674Z,100937.08
2022-10-11T17:27:04.513Z,100940.15
2022-10-11T17:32:07.314Z,100940.91
2022-10-11T17:37:10.255Z,100941.72
2022-10-11T17:42:12.943Z,100936.20
2022-10-11T17:47:15.830Z,100935.73
2022-10-11T17:52:18.705Z,100942.30
2022-10-11T17:57:21.342Z,100942.39
2022-10-11T18:02:24.152Z,100945.16
2022-10-11T18:07:28.130Z,100947.58
2022-10-11T18:12:33.709Z,100948.58
2022-10-11T18:17:39.463Z,100952.92
2022-10-11T18:22:42.403Z,100955.91
2022-10-11T18:27:46.649Z,100960.08
2022-10-11T18:32:50.609Z,100963.16
2022-10-11T18:38:00.047Z,100961.99
2022-10-11T18:43:05.800Z,100965.48
2022-10-11T18:48:10.935Z,100969.02
2022-10-11T18:53:14.771Z,100966.11
2022-10-11T18:58:18.354Z,100968.89
2022-10-11T19:03:23.393Z,100968.44
2022-10-11T19:08:27.739Z,100977.30
2022-10-11T19:13:30.163Z,100979.77
2022-10-11T19:18:33.294Z,100976.89
2022-10-11T19:23:39.458Z,100980.35
2022-10-11T19:28:43.167Z,100976.28
2022-10-11T19:33:48.621Z,100977.54
2022-10-11T19:38:52.564Z,100977.01
2022-10-11T19:43:57.853Z,100979.44
2022-10-11T19:49:02.868Z,100982.64
2022-10-11T19:54:12.997Z,100985.55
2022-10-11T19:59:15.974Z,100990.15
2022-10-11T20:04:47.017Z,100990.48
2022-10-11T20:09:42.951Z,100990.25
2022-10-11T20:14:46.336Z,100994.11
2022-10-11T20:19:49.573Z,100997.11
2022-10-11T20:24:52.898Z,101002.55
2022-10-11T20:29:55.879Z,101001.02
2022-10-11T20:34:58.585Z,100996.77
2022-10-11T20:40:01.024Z,100999.63
2022-10-11T20:45:04.212Z,101004.02
2022-10-11T20:50:07.533Z,101002.42
2022-10-11T20:55:10.162Z,100999.02
2022-10-11T21:00:14.377Z,101000.48
2022-10-11T21:05:16.910Z,101001.69
2022-10-11T21:10:19.332Z,100998.85
2022-10-11T21:15:21.848Z,101004.20
2022-10-11T21:20:25.154Z,100994.67
2022-10-11T21:25:27.661Z,100995.97
2022-10-11T21:30:30.567Z,101000.91
2022-10-11T21:35:33.024Z,101001.77
2022-10-11T21:40:39.185Z,101007.84
2022-10-11T21:45:41.610Z,101003.63
2022-10-11T21:50:44.047Z,101006.39
2022-10-11T21:55:47.167Z,101009.33
2022-10-11T22:00:49.701Z,101010.67
2022-10-11T22:05:52.102Z,101014.19
2022-10-11T22:10:57.388Z,101017.34
2022-10-11T22:16:04.999Z,101012.36
2022-10-11T22:21:14.713Z,101010.62
2022-10-11T22:26:20.451Z,101012.88
2022-10-11T22:31:23.535Z,101013.44
2022-10-11T22:36:27.325Z,101010.27
2022-10-11T22:41:29.788Z,101007.27
2022-10-11T22:46:32.770Z,101007.32
2022-10-11T22:51:35.455Z,101009.79
2022-10-11T22:56:37.878Z,101008.86
2022-10-11T23:01:40.702Z,101006.27
2022-10-11T23:06:44.065Z,101009.74
2022-10-11T23:11:46.585Z,101012.95
2022-10-11T23:16:52.587Z,101011.44
2022-10-11T23:21:55.041Z,101011.41
2022-10-11T23:26:57.532Z,101018.02
2022-10-11T23:32:00.020Z,101014.85
2022-10-11T23:37:03.339Z,101012.42
2022-10-11T23:42:05.863Z,101018.13
2022-10-11T23:47:08.615Z,101018.51
2022-10-11T23:52:11.206Z,101023.21
2022-10-11T23:57:13.817Z,101021.78
